Foymount, Canada
Current Conditions -  °F | °C
As of 11:00 PM on Saturday 25 Oct 2014 (Local Time) from CYWA Reporting Station
Overcast Overcast  
Wind Chill: 46°   Ceiling: 4000
Heat Index: 48°   Visibility: 9mi
Dew Point: 41°   Wind: 6mph
Humidity: 76%   Direction: 280°W
Pressure: 29.47"   Gusts: NA
Location:  45.45°N, 77.32°W
Report Text: CYWA 260300Z AUTO 28005KT 9SM OVC040 09/05 A2947 RMK SLP982
Loading
Personal Weather Stations






























Interactive Weather Map
Tropical Storm Tracking
New forecast layout! Learn more

10-Day Weather Forecast

Advertisements
Track Severe Weather on mobile